METAR Data
IDs: Format: Raw Decoded Include TAF

Data at: 2055 UTC 08 Aug 2020

KAVQ 082035Z AUTO 36004KT 10SM CLR 37/02 A2992 RMK AO2 T03670023
KAVQ 082015Z AUTO 31005KT 10SM CLR 36/03 A2992 RMK AO2 T03620025
KAVQ 081955Z AUTO 30005KT 10SM CLR 36/02 A2993 RMK AO2 T03620024
KAVQ 081935Z AUTO 32004KT 10SM CLR 36/03 A2994 RMK AO2 T03590027
KAVQ 081915Z AUTO 34003KT 10SM CLR 36/03 A2995 RMK AO2 T03550030
KAVQ 081855Z AUTO 27005KT 10SM CLR 35/04 A2995 RMK AO2 T03510035
KAVQ 081835Z AUTO 28003KT 10SM CLR 35/04 A2996 RMK AO2 T03480036
KAVQ 081815Z AUTO 00000KT 10SM CLR 34/04 A2996 RMK AO2 T03430038
KAVQ 081755Z AUTO 30004KT 10SM CLR 34/04 A2997 RMK AO2 T03400038
KAVQ 081735Z AUTO 33003KT 10SM CLR 34/04 A2998 RMK AO2 T03360036
KAVQ 081715Z AUTO 27003KT 10SM CLR 33/03 A2998 RMK AO2 T03290033
KAVQ 081655Z AUTO 00000KT 10SM CLR 33/04 A2998 RMK AO2 T03260036
KAVQ 081635Z AUTO 00000KT 10SM CLR 32/05 A2998 RMK AO2 T03200052
KAVQ 081615Z AUTO 00000KT 10SM CLR 32/06 A2998 RMK AO2 T03170056
KAVQ 081555Z AUTO 16003KT 10SM CLR 31/06 A2998 RMK AO2 T03120060
KAVQ 081535Z AUTO 11004KT 10SM CLR 31/06 A2999 RMK AO2 T03050064
KAVQ 081515Z AUTO 10008KT 10SM CLR 30/07 A2999 RMK AO2 T02960067
KAVQ 081455Z AUTO 11006KT 10SM CLR 29/06 A2999 RMK AO2 T02880064
KAVQ 081435Z AUTO 11005KT 10SM CLR 28/06 A2999 RMK AO2 T02820064
KAVQ 081415Z AUTO 12005KT 10SM CLR 27/07 A2999 RMK AO2 T02730068
KAVQ 081355Z AUTO 10007KT 10SM CLR 26/07 A2998 RMK AO2 T02640070
KAVQ 081335Z AUTO 00000KT 10SM CLR 25/07 A2998 RMK AO2 T02470071
KAVQ 081315Z AUTO 00000KT 10SM CLR 24/07 A2997 RMK AO2 T02410071
KAVQ 081255Z AUTO 00000KT 10SM CLR 24/07 A2996 RMK AO2 T02390074
KAVQ 081235Z AUTO 00000KT 10SM CLR 24/07 A2996 RMK AO2 T02410072
KAVQ 081215Z AUTO 00000KT 10SM CLR 24/07 A2996 RMK AO2 T02420072
KAVQ 081155Z AUTO 23003KT 10SM CLR 25/07 A2995 RMK AO2 T02460069
KAVQ 081135Z AUTO 00000KT 10SM CLR 25/07 A2995 RMK AO2 T02540065
KAVQ 081115Z AUTO 10003KT 10SM CLR 26/06 A2994 RMK AO2 T02580063
KAVQ 081055Z AUTO 10006KT 10SM CLR 26/06 A2994 RMK AO2 T02610064
KAVQ 081035Z AUTO 10005KT 10SM CLR 26/07 A2993 RMK AO2 T02570066
KAVQ 081015Z AUTO 08005KT 10SM CLR 26/07 A2993 RMK AO2 T02600069
KAVQ 080955Z AUTO 00000KT 10SM CLR 26/07 A2993 RMK AO2 T02610071
KAVQ 080935Z AUTO 12003KT 10SM CLR 27/06 A2993 RMK AO2 T02710063
KAVQ 080915Z AUTO 19003KT 10SM CLR 27/06 A2993 RMK AO2 T02720063
KAVQ 080855Z AUTO 21004KT 10SM CLR 28/06 A2992 RMK AO2 T02820063
KAVQ 080835Z AUTO 22005KT 10SM CLR 29/06 A2992 RMK AO2 T02900058
KAVQ 080815Z AUTO 21003KT 10SM CLR 30/06 A2993 RMK AO2 T02960055
KAVQ 080755Z AUTO 19006KT 10SM CLR 30/05 A2993 RMK AO2 T03000053
KAVQ 080735Z AUTO 16003KT 10SM CLR 30/05 A2993 RMK AO2 T03030047
KAVQ 080715Z AUTO 16004KT 10SM CLR 30/04 A2993 RMK AO2 T03020043
KAVQ 080655Z AUTO 12009KT 10SM CLR 30/05 A2992 RMK AO2 T02980045
KAVQ 080635Z AUTO 23004KT 10SM CLR 31/04 A2992 RMK AO2 T03050040
KAVQ 080615Z AUTO 23005KT 10SM CLR 30/04 A2992 RMK AO2 T03040041
KAVQ 080555Z AUTO 22005KT 10SM CLR 31/04 A2992 RMK AO2 T03080042
KAVQ 080535Z AUTO 20006KT 10SM CLR 32/03 A2991 RMK AO2 T03210029
KAVQ 080515Z AUTO 13007KT 10SM CLR 33/02 A2991 RMK AO2 T03260024
KAVQ 080455Z AUTO 12006KT 10SM CLR 33/02 A2991 RMK AO2 T03300020
KAVQ 080435Z AUTO 09005KT 10SM CLR 34/02 A2990 RMK AO2 T03380018
KAVQ 080415Z AUTO 00000KT 10SM CLR 34/02 A2990 RMK AO2 T03410017
KAVQ 080355Z AUTO 13018G23KT 10SM SCT100 SCT120 34/02 A2989 RMK AO2 T03400023
KAVQ 080335Z AUTO 12010G22KT 090V150 10SM BKN100 33/03 A2989 RMK AO2 T03300029
KAVQ 080315Z AUTO 21005KT 10SM SCT120 33/03 A2988 RMK AO2 T03330025
KAVQ 080255Z AUTO 31005KT 10SM CLR 34/02 A2987 RMK AO2 T03360024
KAVQ 080235Z AUTO 29010KT 10SM CLR 34/03 A2986 RMK AO2 T03390025
KAVQ 080215Z AUTO 35004KT 10SM CLR 34/03 A2985 RMK AO2 T03420025
KAVQ 080155Z AUTO 34004KT 10SM CLR 35/02 A2985 RMK AO2 T03510020
KAVQ 080135Z AUTO 35003KT 10SM CLR 36/02 A2985 RMK AO2 T03570017
KAVQ 080115Z AUTO 34003KT 10SM CLR 37/01 A2984 RMK AO2 T03650013
KAVQ 080055Z AUTO 34005KT 10SM CLR 37/02 A2984 RMK AO2 T03680015
KAVQ 080035Z AUTO 02003KT 10SM CLR 37/02 A2984 RMK AO2 T03670016
KAVQ 080015Z AUTO 33008KT 10SM CLR 37/02 A2984 RMK AO2 T03700017
KAVQ 072355Z AUTO 33005KT 10SM CLR 37/02 A2985 RMK AO2 T03710021
KAVQ 072335Z AUTO 32006KT 10SM CLR 37/02 A2985 RMK AO2 T03720017
KAVQ 072315Z AUTO 34004KT 10SM CLR 37/01 A2985 RMK AO2 T03710012
KAVQ 072255Z AUTO 17004KT 10SM CLR 38/01 A2986 RMK AO2 T03750013
KAVQ 072235Z AUTO 31008G18KT 10SM CLR 38/01 A2987 RMK AO2 T03760014
KAVQ 072215Z AUTO 05004KT 10SM CLR 37/01 A2987 RMK AO2 T03700012
KAVQ 072155Z AUTO 34004KT 10SM CLR 37/01 A2988 RMK AO2 T03720013
KAVQ 072135Z AUTO 32009KT 10SM CLR 37/01 A2989 RMK AO2 T03700012
KAVQ 072115Z AUTO 00000KT 10SM CLR 37/01 A2989 RMK AO2 T03680011
KAVQ 072055Z AUTO 07005KT 10SM CLR 37/01 A2989 RMK AO2 T03650009
KAVQ 072035Z AUTO 00000KT 10SM CLR 36/01 A2990 RMK AO2 T03620008
KAVQ 072015Z AUTO 00000KT 10SM CLR 36/01 A2991 RMK AO2 T03600009
KAVQ 071955Z AUTO 26005KT 10SM CLR 36/01 A2992 RMK AO2 T03600011
KAVQ 071935Z AUTO 17003KT 10SM CLR 36/01 A2992 RMK AO2 T03570011
KAVQ 071915Z AUTO 21004KT 10SM CLR 35/02 A2992 RMK AO2 T03540016
KAVQ 071855Z AUTO 33005KT 10SM CLR 35/02 A2993 RMK AO2 T03500019
KAVQ 071835Z AUTO 26004KT 10SM CLR 34/03 A2993 RMK AO2 T03440033
KAVQ 071815Z AUTO 00000KT 10SM CLR 34/04 A2995 RMK AO2 T03390037
KAVQ 071755Z AUTO 00000KT 10SM CLR 33/05 A2995 RMK AO2 T03340047
KAVQ 071735Z AUTO 11003KT 10SM CLR 33/05 A2996 RMK AO2 T03330048
KAVQ 071715Z AUTO 35003KT 10SM CLR 33/05 A2996 RMK AO2 T03280050
KAVQ 071655Z AUTO 00000KT 10SM CLR 33/05 A2996 RMK AO2 T03260053
KAVQ 071635Z AUTO 05003KT 10SM CLR 32/05 A2996 RMK AO2 T03230054
KAVQ 071615Z AUTO 00000KT 10SM CLR 32/06 A2995 RMK AO2 T03190057
KAVQ 071555Z AUTO 11003KT 10SM CLR 31/07 A2995 RMK AO2 T03140069
KAVQ 071535Z AUTO 11005KT 10SM CLR 31/08 A2995 RMK AO2 T03090076
KAVQ 071515Z AUTO 11007KT 10SM CLR 30/08 A2994 RMK AO2 T03030077
KAVQ 071455Z AUTO 10008KT 10SM CLR 30/08 A2994 RMK AO2 T03000075
KAVQ 071435Z AUTO 13007KT 10SM CLR 29/08 A2994 RMK AO2 T02940075
KAVQ 071415Z AUTO 13010KT 10SM CLR 28/08 A2993 RMK AO2 T02840076
KAVQ 071355Z AUTO 12007KT 10SM CLR 27/08 A2993 RMK AO2 T02710076
KAVQ 071335Z AUTO 00000KT 10SM CLR 26/08 A2992 RMK AO2 T02590077
KAVQ 071315Z AUTO 16004KT 10SM CLR 27/08 A2992 RMK AO2 T02670081
KAVQ 071255Z AUTO 16007KT 10SM CLR 27/08 A2991 RMK AO2 T02680077
KAVQ 071235Z AUTO 15006KT 10SM CLR 27/08 A2990 RMK AO2 T02720075
KAVQ 071215Z AUTO 12009KT 10SM CLR 27/08 A2990 RMK AO2 T02680080
KAVQ 071155Z AUTO 15006KT 10SM CLR 27/08 A2990 RMK AO2 T02660081
KAVQ 071135Z AUTO 15005KT 10SM CLR 27/08 A2989 RMK AO2 T02700076
KAVQ 071115Z AUTO 16006KT 10SM CLR 28/07 A2989 RMK AO2 T02770066
KAVQ 071055Z AUTO 15005KT 10SM CLR 28/06 A2989 RMK AO2 T02830059
KAVQ 071035Z AUTO 15006KT 10SM CLR 28/04 A2988 RMK AO2 T02760042
KAVQ 071015Z AUTO 11005KT 10SM CLR 28/04 A2988 RMK AO2 T02760040
KAVQ 070955Z AUTO 14005KT 10SM CLR 28/04 A2988 RMK AO2 T02790042
KAVQ 070935Z AUTO 14006KT 10SM CLR 28/03 A2988 RMK AO2 T02820032
KAVQ 070915Z AUTO 15006KT 10SM CLR 27/04 A2988 RMK AO2 T02690035